sensor_id;sensor_type;location;lat;lon;timestamp;pressure;altitude;pressure_sealevel;temperature;humidity
46946;BME280;32679;40.810;14.498;2023-02-12T13:56:59;101504.56;;;13.53;27.52
46946;BME280;32679;40.810;14.498;2023-02-12T14:02:49;101524.28;;;13.44;26.65
46946;BME280;32679;40.810;14.498;2023-02-12T14:07:19;101512.16;;;13.40;26.40
46946;BME280;32679;40.810;14.498;2023-02-12T14:12:17;101521.59;;;13.35;26.83
46946;BME280;32679;40.810;14.498;2023-02-12T14:15:09;101507.28;;;13.37;26.70
46946;BME280;32679;40.810;14.498;2023-02-12T14:17:55;101510.31;;;13.32;26.81
46946;BME280;32679;40.810;14.498;2023-02-12T14:20:37;101505.38;;;13.41;26.62
46946;BME280;32679;40.810;14.498;2023-02-12T14:29:05;101497.94;;;13.33;27.75
46946;BME280;32679;40.810;14.498;2023-02-12T14:41:48;101504.72;;;13.32;22.18
46946;BME280;32679;40.810;14.498;2023-02-12T14:46:47;101504.00;;;13.35;20.56
46946;BME280;32679;40.810;14.498;2023-02-12T14:49:35;101506.09;;;13.38;20.52
46946;BME280;32679;40.810;14.498;2023-02-12T14:52:24;101507.50;;;13.32;20.45
46946;BME280;32679;40.810;14.498;2023-02-12T14:54:53;101496.72;;;13.09;20.75
46946;BME280;32679;40.810;14.498;2023-02-12T14:57:40;101499.75;;;13.04;20.99
46946;BME280;32679;40.810;14.498;2023-02-12T15:00:24;101499.06;;;13.07;20.97
46946;BME280;32679;40.810;14.498;2023-02-12T15:03:00;101510.94;;;13.04;20.79
46946;BME280;32679;40.810;14.498;2023-02-12T15:05:30;101511.16;;;12.99;21.82
46946;BME280;32679;40.810;14.498;2023-02-12T15:08:31;101514.16;;;12.94;22.17
46946;BME280;32679;40.810;14.498;2023-02-12T15:14:22;101517.88;;;12.74;24.54
46946;BME280;32679;40.810;14.498;2023-02-12T15:16:56;101519.00;;;12.73;25.97
46946;BME280;32679;40.810;14.498;2023-02-12T15:19:56;101512.47;;;12.56;24.16
46946;BME280;32679;40.810;14.498;2023-02-12T15:22:34;101513.69;;;12.68;24.07
46946;BME280;32679;40.810;14.498;2023-02-12T15:27:42;101512.28;;;12.74;24.13
46946;BME280;32679;40.810;14.498;2023-02-12T15:30:37;101502.75;;;12.87;23.74
46946;BME280;32679;40.810;14.498;2023-02-12T15:33:06;101510.69;;;12.97;24.20
46946;BME280;32679;40.810;14.498;2023-02-12T15:35:35;101506.94;;;12.81;24.02
46946;BME280;32679;40.810;14.498;2023-02-12T15:38:02;101510.47;;;12.90;24.44
46946;BME280;32679;40.810;14.498;2023-02-12T15:40:32;101503.34;;;12.80;24.94
46946;BME280;32679;40.810;14.498;2023-02-12T15:43:00;101515.25;;;12.90;25.13
46946;BME280;32679;40.810;14.498;2023-02-12T15:45:28;101501.59;;;12.76;25.85
46946;BME280;32679;40.810;14.498;2023-02-12T15:47:59;101514.81;;;12.67;27.08
46946;BME280;32679;40.810;14.498;2023-02-12T15:50:26;101514.59;;;12.72;27.30
46946;BME280;32679;40.810;14.498;2023-02-12T15:52:55;101509.00;;;12.72;27.52
46946;BME280;32679;40.810;14.498;2023-02-12T15:55:26;101528.31;;;12.65;27.73
46946;BME280;32679;40.810;14.498;2023-02-12T15:57:55;101526.56;;;12.60;29.65
46946;BME280;32679;40.810;14.498;2023-02-12T16:00:31;101529.91;;;12.53;30.04
46946;BME280;32679;40.810;14.498;2023-02-12T16:02:59;101529.91;;;12.53;31.66
46946;BME280;32679;40.810;14.498;2023-02-12T16:05:25;101533.72;;;12.49;31.46
46946;BME280;32679;40.810;14.498;2023-02-12T16:07:51;101533.94;;;12.44;32.78
46946;BME280;32679;40.810;14.498;2023-02-12T16:10:18;101530.75;;;12.33;32.65
46946;BME280;32679;40.810;14.498;2023-02-12T16:12:45;101535.91;;;12.43;33.36
46946;BME280;32679;40.810;14.498;2023-02-12T16:15:27;101531.22;;;12.35;33.47
46946;BME280;32679;40.810;14.498;2023-02-12T16:17:53;101540.25;;;12.20;34.62
46946;BME280;32679;40.810;14.498;2023-02-12T16:20:23;101540.84;;;12.25;34.80
46946;BME280;32679;40.810;14.498;2023-02-12T16:22:50;101532.75;;;12.12;35.63
46946;BME280;32679;40.810;14.498;2023-02-12T16:25:18;101544.66;;;12.00;36.10
46946;BME280;32679;40.810;14.498;2023-02-12T16:27:58;101539.19;;;12.03;37.35
46946;BME280;32679;40.810;14.498;2023-02-12T16:30:31;101516.72;;;11.79;37.50
46946;BME280;32679;40.810;14.498;2023-02-12T16:32:57;101542.94;;;11.87;40.17
46946;BME280;32679;40.810;14.498;2023-02-12T16:35:24;101541.03;;;11.70;40.99
46946;BME280;32679;40.810;14.498;2023-02-12T16:38:01;101556.00;;;11.65;41.65
46946;BME280;32679;40.810;14.498;2023-02-12T16:40:30;101545.38;;;11.59;42.77
46946;BME280;32679;40.810;14.498;2023-02-12T16:42:58;101553.31;;;11.48;43.40
46946;BME280;32679;40.810;14.498;2023-02-12T16:47:56;101566.63;;;11.42;44.09
46946;BME280;32679;40.810;14.498;2023-02-12T16:50:26;101567.78;;;11.41;44.13
46946;BME280;32679;40.810;14.498;2023-02-12T16:53:03;101588.28;;;11.37;43.43
46946;BME280;32679;40.810;14.498;2023-02-12T16:55:28;101574.50;;;11.40;43.28
46946;BME280;32679;40.810;14.498;2023-02-12T16:57:54;101580.25;;;11.35;43.56
46946;BME280;32679;40.810;14.498;2023-02-12T17:00:20;101594.19;;;11.35;44.16
46946;BME280;32679;40.810;14.498;2023-02-12T17:02:46;101601.41;;;11.27;44.89
46946;BME280;32679;40.810;14.498;2023-02-12T17:05:13;101609.81;;;11.19;45.54
46946;BME280;32679;40.810;14.498;2023-02-12T17:07:42;101605.72;;;11.16;45.50
46946;BME280;32679;40.810;14.498;2023-02-12T17:10:14;101604.91;;;11.16;45.45
46946;BME280;32679;40.810;14.498;2023-02-12T17:12:48;101623.41;;;11.12;45.80
46946;BME280;32679;40.810;14.498;2023-02-12T17:15:27;101602.84;;;10.87;45.78
46946;BME280;32679;40.810;14.498;2023-02-12T17:17:54;101627.38;;;11.11;45.06
46946;BME280;32679;40.810;14.498;2023-02-12T17:20:20;101631.00;;;11.02;45.55
46946;BME280;32679;40.810;14.498;2023-02-12T17:22:51;101621.00;;;11.01;45.79
46946;BME280;32679;40.810;14.498;2023-02-12T17:25:17;101625.78;;;10.92;46.31
46946;BME280;32679;40.810;14.498;2023-02-12T17:27:44;101631.34;;;10.92;46.34
46946;BME280;32679;40.810;14.498;2023-02-12T17:30:14;101634.31;;;10.87;46.73
46946;BME280;32679;40.810;14.498;2023-02-12T17:32:40;101614.63;;;10.75;47.16
46946;BME280;32679;40.810;14.498;2023-02-12T17:35:06;101630.69;;;10.78;47.04
46946;BME280;32679;40.810;14.498;2023-02-12T17:37:31;101632.81;;;10.81;45.80
46946;BME280;32679;40.810;14.498;2023-02-12T17:39:59;101627.72;;;10.92;45.94
46946;BME280;32679;40.810;14.498;2023-02-12T17:42:26;101622.00;;;10.88;46.26
46946;BME280;32679;40.810;14.498;2023-02-12T17:44:51;101638.22;;;10.95;46.80
46946;BME280;32679;40.810;14.498;2023-02-12T17:47:17;101644.41;;;10.92;47.41
46946;BME280;32679;40.810;14.498;2023-02-12T17:49:43;101638.38;;;10.90;47.75
46946;BME280;32679;40.810;14.498;2023-02-12T17:52:08;101641.16;;;10.81;47.96
46946;BME280;32679;40.810;14.498;2023-02-12T17:54:34;101646.56;;;10.86;48.21
46946;BME280;32679;40.810;14.498;2023-02-12T17:57:00;101649.84;;;10.80;48.55
46946;BME280;32679;40.810;14.498;2023-02-12T17:59:26;101642.16;;;10.68;49.05
46946;BME280;32679;40.810;14.498;2023-02-12T18:01:54;101647.72;;;10.59;49.84
46946;BME280;32679;40.810;14.498;2023-02-12T18:04:19;101642.97;;;10.60;49.82
46946;BME280;32679;40.810;14.498;2023-02-12T18:06:45;101650.69;;;10.71;50.38
46946;BME280;32679;40.810;14.498;2023-02-12T18:09:10;101664.78;;;10.66;50.72
46946;BME280;32679;40.810;14.498;2023-02-12T18:11:36;101652.81;;;10.66;51.12
46946;BME280;32679;40.810;14.498;2023-02-12T18:14:04;101652.00;;;10.57;51.14
46946;BME280;32679;40.810;14.498;2023-02-12T18:16:34;101658.38;;;10.66;51.33
46946;BME280;32679;40.810;14.498;2023-02-12T18:19:02;101655.59;;;10.74;51.25
46946;BME280;32679;40.810;14.498;2023-02-12T18:21:29;101656.09;;;10.68;51.66
46946;BME280;32679;40.810;14.498;2023-02-12T18:23:58;101658.56;;;10.61;52.56
46946;BME280;32679;40.810;14.498;2023-02-12T18:26:23;101664.75;;;10.58;52.53
46946;BME280;32679;40.810;14.498;2023-02-12T18:28:49;101657.09;;;10.55;52.89
46946;BME280;32679;40.810;14.498;2023-02-12T18:31:17;101660.03;;;10.49;53.64
46946;BME280;32679;40.810;14.498;2023-02-12T18:33:43;101657.41;;;10.44;53.02
46946;BME280;32679;40.810;14.498;2023-02-12T18:36:14;101666.88;;;10.43;53.17
46946;BME280;32679;40.810;14.498;2023-02-12T18:38:42;101672.28;;;10.40;53.88
46946;BME280;32679;40.810;14.498;2023-02-12T18:41:11;101684.88;;;10.29;54.49
46946;BME280;32679;40.810;14.498;2023-02-12T18:43:37;101672.75;;;10.33;54.52
46946;BME280;32679;40.810;14.498;2023-02-12T18:46:08;101662.56;;;10.20;54.89
46946;BME280;32679;40.810;14.498;2023-02-12T18:48:34;101668.44;;;10.10;54.72
46946;BME280;32679;40.810;14.498;2023-02-12T18:51:03;101668.91;;;10.12;55.03
46946;BME280;32679;40.810;14.498;2023-02-12T18:53:29;101669.25;;;10.10;55.21
46946;BME280;32679;40.810;14.498;2023-02-12T18:55:55;101671.88;;;10.07;55.39
46946;BME280;32679;40.810;14.498;2023-02-12T18:58:24;101675.09;;;10.00;55.79
46946;BME280;32679;40.810;14.498;2023-02-12T19:00:49;101672.16;;;9.96;56.69
46946;BME280;32679;40.810;14.498;2023-02-12T19:03:15;101674.94;;;9.96;56.95
46946;BME280;32679;40.810;14.498;2023-02-12T19:05:41;101663.63;;;9.93;56.65
46946;BME280;32679;40.810;14.498;2023-02-12T19:08:10;101673.09;;;9.83;57.42
46946;BME280;32679;40.810;14.498;2023-02-12T19:10:38;101676.34;;;9.85;57.35
46946;BME280;32679;40.810;14.498;2023-02-12T19:13:03;101680.28;;;9.76;57.02
46946;BME280;32679;40.810;14.498;2023-02-12T19:15:31;101692.38;;;9.80;56.76
46946;BME280;32679;40.810;14.498;2023-02-12T19:17:56;101685.63;;;9.72;57.45
46946;BME280;32679;40.810;14.498;2023-02-12T19:20:22;101688.47;;;9.81;57.05
46946;BME280;32679;40.810;14.498;2023-02-12T19:22:47;101682.38;;;9.79;56.75
46946;BME280;32679;40.810;14.498;2023-02-12T19:25:13;101685.97;;;9.79;57.70
46946;BME280;32679;40.810;14.498;2023-02-12T19:27:38;101676.47;;;9.71;56.73
46946;BME280;32679;40.810;14.498;2023-02-12T19:30:05;101684.53;;;9.82;56.54
46946;BME280;32679;40.810;14.498;2023-02-12T19:32:30;101672.59;;;9.81;55.97
46946;BME280;32679;40.810;14.498;2023-02-12T19:34:56;101678.44;;;9.71;57.13
46946;BME280;32679;40.810;14.498;2023-02-12T19:37:22;101677.13;;;9.68;57.42
46946;BME280;32679;40.810;14.498;2023-02-12T19:39:47;101678.94;;;9.73;56.33
46946;BME280;32679;40.810;14.498;2023-02-12T19:42:13;101684.34;;;9.69;56.19
46946;BME280;32679;40.810;14.498;2023-02-12T19:44:41;101679.50;;;9.53;56.55
46946;BME280;32679;40.810;14.498;2023-02-12T19:47:07;101695.59;;;9.64;57.08
46946;BME280;32679;40.810;14.498;2023-02-12T19:49:33;101692.13;;;9.59;57.02
46946;BME280;32679;40.810;14.498;2023-02-12T19:51:59;101697.31;;;9.52;57.54
46946;BME280;32679;40.810;14.498;2023-02-12T19:54:25;101700.97;;;9.61;57.99
46946;BME280;32679;40.810;14.498;2023-02-12T19:56:53;101697.16;;;9.48;59.72
46946;BME280;32679;40.810;14.498;2023-02-12T19:59:21;101702.25;;;9.55;60.36
46946;BME280;32679;40.810;14.498;2023-02-12T20:01:47;101705.16;;;9.50;60.85
46946;BME280;32679;40.810;14.498;2023-02-12T20:04:16;101700.00;;;9.34;61.92
46946;BME280;32679;40.810;14.498;2023-02-12T20:06:42;101691.47;;;9.31;62.35
46946;BME280;32679;40.810;14.498;2023-02-12T20:09:10;101702.41;;;9.27;62.58
46946;BME280;32679;40.810;14.498;2023-02-12T20:11:37;101704.59;;;9.39;62.68
46946;BME280;32679;40.810;14.498;2023-02-12T20:14:05;101708.34;;;9.34;62.77
46946;BME280;32679;40.810;14.498;2023-02-12T20:16:32;101702.97;;;9.38;62.32
46946;BME280;32679;40.810;14.498;2023-02-12T20:19:04;101699.66;;;9.36;61.69
46946;BME280;32679;40.810;14.498;2023-02-12T20:21:30;101701.38;;;9.45;62.03
46946;BME280;32679;40.810;14.498;2023-02-12T20:23:58;101695.19;;;9.49;61.37
46946;BME280;32679;40.810;14.498;2023-02-12T20:26:29;101699.59;;;9.50;61.24
46946;BME280;32679;40.810;14.498;2023-02-12T20:28:54;101694.03;;;9.50;60.83
46946;BME280;32679;40.810;14.498;2023-02-12T20:31:29;101711.53;;;9.50;60.61
46946;BME280;32679;40.810;14.498;2023-02-12T20:34:09;101706.16;;;9.54;60.93
46946;BME280;32679;40.810;14.498;2023-02-12T20:36:37;101709.91;;;9.49;60.88
46946;BME280;32679;40.810;14.498;2023-02-12T20:39:04;101716.44;;;9.53;61.14
46946;BME280;32679;40.810;14.498;2023-02-12T20:41:30;101714.78;;;9.43;60.62
46946;BME280;32679;40.810;14.498;2023-02-12T20:43:58;101716.06;;;9.46;60.85
46946;BME280;32679;40.810;14.498;2023-02-12T20:46:25;101720.63;;;9.42;60.84
46946;BME280;32679;40.810;14.498;2023-02-12T20:48:50;101726.31;;;9.37;61.24
46946;BME280;32679;40.810;14.498;2023-02-12T20:51:21;101729.53;;;9.30;61.36
46946;BME280;32679;40.810;14.498;2023-02-12T20:53:47;101733.94;;;9.31;61.55
46946;BME280;32679;40.810;14.498;2023-02-12T20:56:19;101729.91;;;9.37;60.76
46946;BME280;32679;40.810;14.498;2023-02-12T20:58:46;101724.72;;;9.44;61.26
46946;BME280;32679;40.810;14.498;2023-02-12T21:01:38;101728.66;;;9.43;61.24
46946;BME280;32679;40.810;14.498;2023-02-12T21:04:07;101727.00;;;9.42;61.17
46946;BME280;32679;40.810;14.498;2023-02-12T21:06:33;101726.84;;;9.48;60.88
46946;BME280;32679;40.810;14.498;2023-02-12T21:09:00;101729.28;;;9.40;60.26
46946;BME280;32679;40.810;14.498;2023-02-12T21:11:27;101720.00;;;9.45;59.88
46946;BME280;32679;40.810;14.498;2023-02-12T21:13:55;101726.38;;;9.45;60.04
46946;BME280;32679;40.810;14.498;2023-02-12T21:16:27;101724.53;;;9.41;60.22
46946;BME280;32679;40.810;14.498;2023-02-12T21:18:54;101732.53;;;9.42;59.92
46946;BME280;32679;40.810;14.498;2023-02-12T21:21:27;101739.78;;;9.43;60.17
46946;BME280;32679;40.810;14.498;2023-02-12T21:23:54;101743.78;;;9.37;60.21
46946;BME280;32679;40.810;14.498;2023-02-12T21:26:21;101721.53;;;9.29;59.18
46946;BME280;32679;40.810;14.498;2023-02-12T21:28:49;101731.25;;;9.40;57.47
46946;BME280;32679;40.810;14.498;2023-02-12T21:31:20;101734.84;;;9.40;56.70
46946;BME280;32679;40.810;14.498;2023-02-12T21:33:47;101734.97;;;9.35;56.85
46946;BME280;32679;40.810;14.498;2023-02-12T21:36:19;101734.22;;;9.43;55.11
46946;BME280;32679;40.810;14.498;2023-02-12T21:38:47;101735.84;;;9.44;54.75
46946;BME280;32679;40.810;14.498;2023-02-12T21:41:16;101727.88;;;9.52;54.30
46946;BME280;32679;40.810;14.498;2023-02-12T21:43:45;101733.56;;;9.47;54.64
46946;BME280;32679;40.810;14.498;2023-02-12T21:46:11;101736.03;;;9.48;54.39
46946;BME280;32679;40.810;14.498;2023-02-12T21:48:39;101731.78;;;9.51;54.63
46946;BME280;32679;40.810;14.498;2023-02-12T21:51:05;101709.09;;;9.26;55.37
46946;BME280;32679;40.810;14.498;2023-02-12T21:53:31;101740.41;;;9.40;55.54
46946;BME280;32679;40.810;14.498;2023-02-12T21:56:01;101739.09;;;9.38;55.69
46946;BME280;32679;40.810;14.498;2023-02-12T21:58:26;101746.19;;;9.30;56.73
46946;BME280;32679;40.810;14.498;2023-02-12T22:00:52;101734.19;;;9.21;55.63
46946;BME280;32679;40.810;14.498;2023-02-12T22:03:17;101736.09;;;9.34;56.11
46946;BME280;32679;40.810;14.498;2023-02-12T22:05:44;101707.84;;;9.10;56.55
46946;BME280;32679;40.810;14.498;2023-02-12T22:08:10;101707.91;;;9.18;55.50
46946;BME280;32679;40.810;14.498;2023-02-12T22:10:36;101742.16;;;9.36;55.15
46946;BME280;32679;40.810;14.498;2023-02-12T22:13:04;101742.69;;;9.38;55.64
46946;BME280;32679;40.810;14.498;2023-02-12T22:15:29;101744.56;;;9.29;56.73
46946;BME280;32679;40.810;14.498;2023-02-12T22:17:55;101738.00;;;9.25;57.00
46946;BME280;32679;40.810;14.498;2023-02-12T22:20:20;101738.94;;;9.21;56.73
46946;BME280;32679;40.810;14.498;2023-02-12T22:22:45;101736.56;;;9.28;56.43
46946;BME280;32679;40.810;14.498;2023-02-12T22:25:11;101752.97;;;9.38;56.45
46946;BME280;32679;40.810;14.498;2023-02-12T22:27:37;101751.97;;;9.34;56.11
46946;BME280;32679;40.810;14.498;2023-02-12T22:30:03;101760.66;;;9.18;56.75
46946;BME280;32679;40.810;14.498;2023-02-12T22:32:28;101761.28;;;9.15;57.67
46946;BME280;32679;40.810;14.498;2023-02-12T22:34:54;101746.09;;;9.13;58.39
46946;BME280;32679;40.810;14.498;2023-02-12T22:37:19;101755.44;;;9.17;58.58
46946;BME280;32679;40.810;14.498;2023-02-12T22:39:45;101757.19;;;9.35;57.50
46946;BME280;32679;40.810;14.498;2023-02-12T22:42:10;101753.25;;;9.36;57.26
46946;BME280;32679;40.810;14.498;2023-02-12T22:44:36;101760.63;;;9.32;57.44
46946;BME280;32679;40.810;14.498;2023-02-12T22:47:02;101750.56;;;9.23;57.52
46946;BME280;32679;40.810;14.498;2023-02-12T22:49:27;101745.97;;;9.18;58.05
46946;BME280;32679;40.810;14.498;2023-02-12T22:51:53;101743.38;;;9.22;57.70
46946;BME280;32679;40.810;14.498;2023-02-12T22:54:19;101761.03;;;9.26;57.57
46946;BME280;32679;40.810;14.498;2023-02-12T22:56:49;101749.94;;;9.26;57.17
46946;BME280;32679;40.810;14.498;2023-02-12T22:59:14;101752.47;;;9.13;57.93
46946;BME280;32679;40.810;14.498;2023-02-12T23:01:40;101765.66;;;9.30;58.18
46946;BME280;32679;40.810;14.498;2023-02-12T23:04:06;101769.44;;;9.12;59.55
46946;BME280;32679;40.810;14.498;2023-02-12T23:06:32;101768.41;;;9.08;59.64
46946;BME280;32679;40.810;14.498;2023-02-12T23:09:00;101760.53;;;9.01;60.11
46946;BME280;32679;40.810;14.498;2023-02-12T23:11:27;101762.16;;;9.02;60.73
46946;BME280;32679;40.810;14.498;2023-02-12T23:13:54;101759.41;;;9.02;60.76
46946;BME280;32679;40.810;14.498;2023-02-12T23:16:20;101763.22;;;8.92;61.19
46946;BME280;32679;40.810;14.498;2023-02-12T23:18:48;101757.78;;;8.87;61.67
46946;BME280;32679;40.810;14.498;2023-02-12T23:21:13;101750.41;;;8.83;62.14
46946;BME280;32679;40.810;14.498;2023-02-12T23:23:39;101746.44;;;8.75;62.23
46946;BME280;32679;40.810;14.498;2023-02-12T23:26:04;101752.00;;;8.61;63.15
46946;BME280;32679;40.810;14.498;2023-02-12T23:28:30;101754.47;;;8.63;63.21
46946;BME280;32679;40.810;14.498;2023-02-12T23:30:58;101758.78;;;8.69;63.39
46946;BME280;32679;40.810;14.498;2023-02-12T23:33:24;101762.91;;;8.58;63.01
46946;BME280;32679;40.810;14.498;2023-02-12T23:35:49;101762.09;;;8.44;63.46
46946;BME280;32679;40.810;14.498;2023-02-12T23:38:15;101755.81;;;8.24;63.86
46946;BME280;32679;40.810;14.498;2023-02-12T23:40:41;101782.66;;;8.43;63.74
46946;BME280;32679;40.810;14.498;2023-02-12T23:43:07;101776.56;;;8.27;64.40
46946;BME280;32679;40.810;14.498;2023-02-12T23:45:32;101780.59;;;8.21;65.14
46946;BME280;32679;40.810;14.498;2023-02-12T23:47:58;101778.19;;;8.14;65.31
46946;BME280;32679;40.810;14.498;2023-02-12T23:50:24;101776.06;;;8.38;64.34
46946;BME280;32679;40.810;14.498;2023-02-12T23:52:49;101762.28;;;8.20;64.84
46946;BME280;32679;40.810;14.498;2023-02-12T23:55:15;101764.56;;;8.18;65.75
46946;BME280;32679;40.810;14.498;2023-02-12T23:57:43;101775.75;;;8.12;65.09
